Time;durP1;ratioP1;P1;durP2;ratioP2;P2;SDS_P1;SDS_P2;PMS_P1;PMS_P2;Temp;Humidity;BMP_temperature;BMP_pressure;BME280_temperature;BME280_humidity;BME280_pressure;Samples;Min_cycle;Max_cycle;Signal;HPM_P1;HPM_P2
2023/04/14 00:00:30;;;;;;;7.13;1.53;;;7.20;83.30;;;;;;5034542;28;20026;-84
2023/04/14 00:02:56;;;;;;;6.83;1.90;;;7.20;83.50;;;;;;5034567;28;20024;-84
2023/04/14 00:05:21;;;;;;;5.20;1.80;;;7.20;83.90;;;;;;5017756;28;20104;-84
2023/04/14 00:07:47;;;;;;;6.13;1.87;;;7.10;84.00;;;;;;5017572;28;20570;-84
2023/04/14 00:10:12;;;;;;;6.27;1.83;;;7.20;84.40;;;;;;5016440;28;20394;-84
2023/04/14 00:12:38;;;;;;;5.57;1.60;;;7.10;84.60;;;;;;5017517;28;20057;-84
2023/04/14 00:15:05;;;;;;;5.57;1.50;;;7.00;84.70;;;;;;5017470;28;20031;-84
2023/04/14 00:17:30;;;;;;;7.33;2.00;;;7.00;85.10;;;;;;5017205;28;20032;-84
2023/04/14 00:19:56;;;;;;;11.07;2.00;;;7.00;85.30;;;;;;5017729;28;20390;-84
2023/04/14 00:22:21;;;;;;;5.90;1.90;;;7.00;85.50;;;;;;5017921;28;20038;-83
2023/04/14 00:24:49;;;;;;;5.00;1.47;;;7.00;85.80;;;;;;5035593;28;20454;-83
2023/04/14 00:27:15;;;;;;;6.07;1.60;;;6.90;86.10;;;;;;5017395;28;20061;-83
2023/04/14 00:29:41;;;;;;;5.93;2.00;;;7.00;86.80;;;;;;5017008;28;20053;-83
2023/04/14 00:32:06;;;;;;;7.73;2.43;;;7.00;87.60;;;;;;5017327;28;20474;-83
2023/04/14 00:34:33;;;;;;;8.83;2.77;;;7.10;87.60;;;;;;5017313;28;20034;-83
2023/04/14 00:36:58;;;;;;;7.33;2.57;;;7.00;87.20;;;;;;5033567;28;20029;-84
2023/04/14 00:39:24;;;;;;;9.10;3.13;;;7.00;87.00;;;;;;5033552;28;20386;-84
2023/04/14 00:41:50;;;;;;;12.43;3.10;;;7.00;87.30;;;;;;5033378;28;20036;-84
2023/04/14 00:44:16;;;;;;;7.50;2.77;;;6.90;87.30;;;;;;5033137;28;20377;-84
2023/04/14 00:46:42;;;;;;;7.50;3.13;;;6.90;87.40;;;;;;5016631;28;20049;-83
2023/04/14 00:49:08;;;;;;;8.53;3.60;;;6.90;87.70;;;;;;5032982;28;20462;-83
2023/04/14 00:51:35;;;;;;;7.60;3.37;;;6.90;87.80;;;;;;5034158;28;20060;-84
2023/04/14 00:54:06;;;;;;;8.13;2.67;;;6.80;87.90;;;;;;5033113;28;20060;-83
2023/04/14 00:56:32;;;;;;;13.33;3.90;;;6.80;88.10;;;;;;5032833;28;20029;-83
2023/04/14 00:59:00;;;;;;;8.17;3.13;;;6.80;88.30;;;;;;5016367;28;20029;-84
2023/04/14 01:01:30;;;;;;;8.70;4.20;;;6.80;88.50;;;;;;5016473;28;20532;-84
2023/04/14 01:03:57;;;;;;;10.87;4.33;;;6.80;88.70;;;;;;5016278;28;20028;-83
2023/04/14 01:06:22;;;;;;;8.63;3.83;;;6.80;88.90;;;;;;5016347;28;20026;-84
2023/04/14 01:08:49;;;;;;;7.60;3.70;;;6.80;89.00;;;;;;5033132;28;20111;-84
2023/04/14 01:11:20;;;;;;;9.03;4.60;;;6.60;89.10;;;;;;5034180;28;20025;-84
2023/04/14 01:14:41;;;;;;;9.20;3.33;;;6.70;89.30;;;;;;5032822;28;20335;-84
2023/04/14 01:17:26;;;;;;;7.13;3.37;;;6.70;89.40;;;;;;4938100;29;20082;-84
2023/04/14 01:20:16;;;;;;;11.57;3.27;;;6.60;89.50;;;;;;5027876;28;20041;-84
2023/04/14 01:23:12;;;;;;;7.20;3.47;;;6.60;89.90;;;;;;5032858;28;20409;-84
2023/04/14 01:26:05;;;;;;;8.00;3.80;;;6.60;90.00;;;;;;5022289;28;20482;-84
2023/04/14 01:28:49;;;;;;;11.60;4.70;;;6.60;90.00;;;;;;5032553;28;20021;-83
2023/04/14 01:31:39;;;;;;;8.97;3.37;;;6.50;90.00;;;;;;5032982;28;20036;-83
2023/04/14 01:34:36;;;;;;;8.83;3.63;;;6.50;90.00;;;;;;5032875;28;20018;-84
2023/04/14 01:37:29;;;;;;;8.43;4.27;;;6.50;90.10;;;;;;4949685;28;20041;-84
2023/04/14 01:39:59;;;;;;;9.67;3.30;;;6.40;90.20;;;;;;5033820;28;20109;-84
2023/04/14 01:42:30;;;;;;;10.80;4.40;;;6.40;90.30;;;;;;5033997;28;20108;-84
2023/04/14 01:45:00;;;;;;;9.63;3.90;;;6.40;90.40;;;;;;5034676;28;20496;-84
2023/04/14 01:47:28;;;;;;;9.30;4.27;;;6.40;90.40;;;;;;5033902;28;20022;-84
2023/04/14 01:49:55;;;;;;;5.97;3.53;;;6.30;90.50;;;;;;5017279;28;20386;-84
2023/04/14 01:52:23;;;;;;;11.43;4.03;;;6.30;90.60;;;;;;5033173;28;20029;-83
2023/04/14 01:54:53;;;;;;;10.20;4.73;;;6.30;90.70;;;;;;5016786;28;20021;-83
2023/04/14 01:57:21;;;;;;;8.93;4.10;;;6.30;90.80;;;;;;5032595;28;20367;-78
2023/04/14 01:59:49;;;;;;;10.57;4.93;;;6.30;90.90;;;;;;5031983;28;20390;-78
2023/04/14 02:02:17;;;;;;;9.80;4.30;;;6.30;90.90;;;;;;5031804;28;20036;-78
2023/04/14 02:04:44;;;;;;;10.37;4.93;;;6.20;91.00;;;;;;5015464;28;20436;-78
2023/04/14 02:07:11;;;;;;;9.00;4.03;;;6.20;91.00;;;;;;5031837;28;20382;-79
2023/04/14 02:09:38;;;;;;;8.97;4.60;;;6.20;91.10;;;;;;5031831;28;20041;-78
2023/04/14 02:12:06;;;;;;;10.93;4.70;;;6.20;91.20;;;;;;5032404;28;20026;-78
2023/04/14 02:14:33;;;;;;;9.23;4.10;;;6.10;91.30;;;;;;5031822;28;20017;-78
2023/04/14 02:17:01;;;;;;;10.13;4.43;;;6.10;91.40;;;;;;5015399;28;20025;-78
2023/04/14 02:19:28;;;;;;;9.83;4.33;;;6.00;91.40;;;;;;5015821;28;20390;-78
2023/04/14 02:21:57;;;;;;;9.43;4.13;;;6.00;91.40;;;;;;5015276;28;20034;-78
2023/04/14 02:24:23;;;;;;;10.93;4.53;;;6.20;91.60;;;;;;5031478;28;20027;-78
2023/04/14 02:27:04;;;;;;;10.33;4.27;;;6.00;91.60;;;;;;5015305;28;20029;-78
2023/04/14 02:29:31;;;;;;;9.10;4.67;;;5.90;91.70;;;;;;5031493;28;20099;-78
2023/04/14 02:32:04;;;;;;;12.73;5.53;;;5.90;91.80;;;;;;5031671;28;20025;-78
2023/04/14 02:34:36;;;;;;;9.75;4.38;;;5.90;91.80;;;;;;5033884;28;20018;-76
2023/04/14 02:37:08;;;;;;;9.10;5.00;;;5.90;91.90;;;;;;5035340;28;20034;-78
2023/04/14 02:39:42;;;;;;;9.40;4.60;;;5.80;92.00;;;;;;5035676;28;20087;-78
2023/04/14 02:42:14;;;;;;;;;;;5.90;92.10;;;;;;5035712;28;20389;-78
2023/04/14 02:44:48;;;;;;;11.53;4.77;;;5.80;92.10;;;;;;5035247;28;19909;-78
2023/04/14 02:47:36;;;;;;;9.17;4.17;;;5.80;92.10;;;;;;5035060;28;20067;-78
2023/04/14 02:50:04;;;;;;;7.43;4.10;;;5.80;92.20;;;;;;5035329;28;20105;-76
2023/04/14 02:52:31;;;;;;;10.07;5.10;;;5.80;92.20;;;;;;5034893;28;20026;-78
2023/04/14 02:54:59;;;;;;;10.93;4.30;;;5.70;92.20;;;;;;5018636;28;20029;-78
2023/04/14 02:57:26;;;;;;;9.33;4.87;;;5.70;92.30;;;;;;5034746;28;20029;-78
2023/04/14 02:59:54;;;;;;;9.10;4.53;;;5.70;92.40;;;;;;5035022;28;20103;-78
2023/04/14 03:02:21;;;;;;;9.13;4.50;;;5.70;92.40;;;;;;5034770;28;20080;-77
2023/04/14 03:04:46;;;;;;;11.57;5.53;;;5.70;92.50;;;;;;5018508;28;20033;-78
2023/04/14 03:07:14;;;;;;;9.97;4.80;;;5.70;92.50;;;;;;5034939;28;20017;-77
2023/04/14 03:09:41;;;;;;;12.23;5.00;;;5.70;92.60;;;;;;5034690;28;20136;-78
2023/04/14 03:12:11;;;;;;;12.17;5.97;;;5.70;92.70;;;;;;5018485;28;20034;-78
2023/04/14 03:14:38;;;;;;;11.13;5.87;;;5.60;92.70;;;;;;5022910;28;20410;-78
2023/04/14 03:17:06;;;;;;;10.47;5.70;;;5.60;92.80;;;;;;5021706;28;20067;-78
2023/04/14 03:19:33;;;;;;;10.70;5.57;;;5.70;92.90;;;;;;5054005;28;20048;-78
2023/04/14 03:21:59;;;;;;;11.37;5.40;;;5.50;92.90;;;;;;5053631;28;20044;-77
2023/04/14 03:24:29;;;;;;;11.20;5.63;;;5.50;93.00;;;;;;5054927;28;20032;-77
2023/04/14 03:27:12;;;;;;;10.57;5.37;;;5.50;93.10;;;;;;5054420;28;20031;-78
2023/04/14 03:29:44;;;;;;;10.47;5.33;;;5.50;93.20;;;;;;5054336;28;20053;-78
2023/04/14 03:32:10;;;;;;;8.43;5.17;;;5.50;93.30;;;;;;5038389;28;20033;-78
2023/04/14 03:34:45;;;;;;;9.90;4.90;;;5.50;93.50;;;;;;5037772;28;20055;-78
2023/04/14 03:37:15;;;;;;;9.60;5.00;;;5.50;93.50;;;;;;5054348;28;20127;-78
2023/04/14 03:39:42;;;;;;;9.57;5.03;;;5.50;93.60;;;;;;5054317;28;20032;-78
2023/04/14 03:42:10;;;;;;;12.57;5.73;;;5.50;93.70;;;;;;5021235;28;20378;-78
2023/04/14 03:44:37;;;;;;;13.20;6.27;;;5.40;93.80;;;;;;5054296;28;20415;-78
2023/04/14 03:47:06;;;;;;;10.87;5.53;;;5.40;93.90;;;;;;5021418;28;20074;-78
2023/04/14 03:49:36;;;;;;;9.87;5.50;;;5.40;94.00;;;;;;5022020;28;20400;-78
2023/04/14 03:52:09;;;;;;;12.63;6.00;;;5.40;94.10;;;;;;5053933;28;20032;-78
2023/04/14 03:54:37;;;;;;;12.90;5.97;;;5.40;94.20;;;;;;5053947;28;20029;-78
2023/04/14 03:57:05;;;;;;;9.80;5.43;;;5.30;94.20;;;;;;5053941;28;20029;-78
2023/04/14 03:59:34;;;;;;;11.80;5.83;;;5.40;94.40;;;;;;5053910;28;20037;-78
2023/04/14 04:02:01;;;;;;;10.70;5.80;;;5.30;94.50;;;;;;5053803;28;20028;-78
2023/04/14 04:04:29;;;;;;;13.17;5.80;;;5.30;94.60;;;;;;5037329;28;20021;-79
2023/04/14 04:06:56;;;;;;;12.37;6.50;;;5.30;94.70;;;;;;5053685;28;20018;-78
2023/04/14 04:09:23;;;;;;;11.47;5.70;;;5.30;94.90;;;;;;5053561;28;20128;-79
2023/04/14 04:11:51;;;;;;;10.20;5.60;;;5.30;95.00;;;;;;5037131;28;20040;-78
2023/04/14 04:14:20;;;;;;;9.60;5.43;;;5.30;95.10;;;;;;5053565;28;20130;-78
2023/04/14 04:16:49;;;;;;;18.67;6.50;;;5.30;95.20;;;;;;5053522;28;20024;-79
2023/04/14 04:19:16;;;;;;;10.07;5.70;;;5.30;95.30;;;;;;5054766;28;20028;-78
2023/04/14 04:21:44;;;;;;;15.73;6.37;;;5.30;95.40;;;;;;5037056;28;20456;-78
2023/04/14 04:24:11;;;;;;;12.63;6.33;;;5.30;95.50;;;;;;5054650;28;20483;-79
2023/04/14 04:26:37;;;;;;;11.87;6.23;;;5.30;95.60;;;;;;5020648;28;20024;-78
2023/04/14 04:29:04;;;;;;;16.50;6.83;;;5.30;95.70;;;;;;5052667;28;20033;-78
2023/04/14 04:31:33;;;;;;;10.13;5.77;;;5.30;95.70;;;;;;5053329;28;20492;-78
2023/04/14 04:33:59;;;;;;;10.93;5.50;;;5.20;95.70;;;;;;5053451;28;20040;-79
2023/04/14 04:36:27;;;;;;;10.97;6.00;;;5.10;95.80;;;;;;5036726;28;20033;-79
2023/04/14 04:38:52;;;;;;;12.03;5.80;;;5.20;95.80;;;;;;5053197;28;20036;-78
2023/04/14 04:41:25;;;;;;;10.70;5.77;;;5.20;95.90;;;;;;5036314;28;20477;-78
2023/04/14 04:43:50;;;;;;;13.20;6.60;;;5.10;96.00;;;;;;5052964;28;20480;-78
2023/04/14 04:46:22;;;;;;;13.37;5.60;;;5.10;96.00;;;;;;5019960;28;20119;-78
2023/04/14 04:48:51;;;;;;;11.60;5.77;;;5.10;96.00;;;;;;5053014;28;20052;-78
2023/04/14 04:51:17;;;;;;;12.77;6.13;;;5.10;96.10;;;;;;5053147;28;20029;-79
2023/04/14 04:53:43;;;;;;;13.90;6.07;;;5.00;96.30;;;;;;5019857;28;20033;-78
2023/04/14 04:56:09;;;;;;;11.77;5.73;;;5.00;96.30;;;;;;5052077;28;20119;-78
2023/04/14 04:58:34;;;;;;;12.03;6.20;;;5.00;96.40;;;;;;5052716;28;20025;-79
2023/04/14 05:01:09;;;;;;;12.30;6.73;;;5.00;96.40;;;;;;5036110;28;20163;-78
2023/04/14 05:03:35;;;;;;;11.93;6.17;;;5.00;96.50;;;;;;5052507;28;20056;-78
2023/04/14 05:06:01;;;;;;;12.37;6.00;;;5.00;96.90;;;;;;5051638;28;20024;-77
2023/04/14 05:08:27;;;;;;;11.30;5.57;;;5.00;96.80;;;;;;5038591;28;20040;-78
2023/04/14 05:10:53;;;;;;;12.03;6.00;;;5.00;96.90;;;;;;5055236;28;20035;-77
2023/04/14 05:13:18;;;;;;;16.47;6.40;;;5.00;97.00;;;;;;5022480;28;20039;-78
2023/04/14 05:15:44;;;;;;;13.37;5.50;;;5.00;97.10;;;;;;5022692;28;20120;-78
2023/04/14 05:18:10;;;;;;;11.37;5.37;;;5.00;97.20;;;;;;5055840;28;20116;-78
2023/04/14 05:20:36;;;;;;;11.03;5.87;;;5.00;97.30;;;;;;5039020;28;20048;-78
2023/04/14 05:23:01;;;;;;;12.93;6.23;;;5.00;97.40;;;;;;5039087;28;20063;-78
2023/04/14 05:25:27;;;;;;;11.10;5.83;;;5.10;97.50;;;;;;5038901;28;20024;-78
2023/04/14 05:27:53;;;;;;;11.57;5.97;;;5.10;97.90;;;;;;5055472;28;20103;-78
2023/04/14 05:30:19;;;;;;;12.10;6.10;;;5.10;97.70;;;;;;5022420;28;20036;-78
2023/04/14 05:32:44;;;;;;;12.83;5.57;;;5.20;97.80;;;;;;5035879;28;20428;-78
2023/04/14 05:35:10;;;;;;;12.00;5.90;;;5.20;97.90;;;;;;5038379;28;20037;-78
2023/04/14 05:37:36;;;;;;;12.23;6.23;;;5.20;97.90;;;;;;5038445;28;20028;-78
2023/04/14 05:40:02;;;;;;;15.37;5.70;;;5.30;98.00;;;;;;5073267;28;20031;-78
2023/04/14 05:42:28;;;;;;;14.43;5.60;;;5.30;98.10;;;;;;5022490;28;20373;-78
2023/04/14 05:44:53;;;;;;;13.03;5.90;;;5.30;98.10;;;;;;5073326;28;20058;-78
2023/04/14 05:47:19;;;;;;;10.33;5.60;;;5.40;98.30;;;;;;5038664;28;20480;-78
2023/04/14 05:49:45;;;;;;;11.80;5.50;;;5.40;98.40;;;;;;5037858;28;20527;-78
2023/04/14 05:52:10;;;;;;;13.67;6.43;;;5.40;98.50;;;;;;5038548;28;20029;-78
2023/04/14 05:54:36;;;;;;;16.07;6.27;;;5.50;98.60;;;;;;5038404;28;20033;-78
2023/04/14 05:57:02;;;;;;;11.40;5.47;;;5.50;98.70;;;;;;5055985;28;20152;-78
2023/04/14 05:59:27;;;;;;;11.87;6.10;;;5.60;98.80;;;;;;5034673;28;20023;-78
2023/04/14 06:01:53;;;;;;;10.40;5.53;;;5.60;98.80;;;;;;5035393;28;20551;-78
2023/04/14 06:04:18;;;;;;;13.47;6.23;;;5.70;99.00;;;;;;5053091;28;20419;-78
2023/04/14 06:06:44;;;;;;;13.53;6.20;;;5.70;99.00;;;;;;5018618;28;20495;-78
2023/04/14 06:09:10;;;;;;;13.73;6.73;;;5.70;99.00;;;;;;5054749;28;20397;-79
2023/04/14 06:11:36;;;;;;;14.10;7.17;;;5.70;99.20;;;;;;5022365;28;20033;-78
2023/04/14 06:14:04;;;;;;;11.23;6.87;;;5.70;99.20;;;;;;5038891;28;20525;-78
2023/04/14 06:16:29;;;;;;;14.10;6.97;;;5.90;99.40;;;;;;5022666;28;20485;-77
2023/04/14 06:18:55;;;;;;;17.93;7.20;;;5.90;99.50;;;;;;5041818;28;20156;-78
2023/04/14 06:21:21;;;;;;;12.00;6.50;;;5.90;99.60;;;;;;5059207;28;20024;-78
2023/04/14 06:23:46;;;;;;;13.43;5.93;;;6.00;99.70;;;;;;5023729;28;20028;-78
2023/04/14 06:26:12;;;;;;;11.43;6.17;;;6.10;99.70;;;;;;5009158;28;20068;-78
2023/04/14 06:28:38;;;;;;;12.80;5.80;;;6.10;99.60;;;;;;5027104;28;20032;-83
2023/04/14 06:31:04;;;;;;;13.00;5.50;;;6.20;99.70;;;;;;5042910;28;20484;-82
2023/04/14 06:33:30;;;;;;;13.57;6.50;;;6.20;99.70;;;;;;5025591;28;20115;-83
2023/04/14 06:35:56;;;;;;;13.20;5.27;;;6.30;99.60;;;;;;5042205;28;20071;-83
2023/04/14 06:38:23;;;;;;;14.43;5.10;;;6.30;99.50;;;;;;5025774;28;20048;-83
2023/04/14 06:40:49;;;;;;;10.37;4.57;;;6.30;99.50;;;;;;5058961;28;20365;-83
2023/04/14 06:43:16;;;;;;;9.83;4.40;;;6.40;99.50;;;;;;5058603;28;20035;-84
2023/04/14 06:45:42;;;;;;;12.97;4.87;;;6.40;99.50;;;;;;5042048;28;20032;-83
2023/04/14 06:48:08;;;;;;;14.27;5.93;;;6.40;99.50;;;;;;5058464;28;20024;-83
2023/04/14 06:50:34;;;;;;;16.47;5.37;;;6.50;99.60;;;;;;5025405;28;20021;-83
2023/04/14 06:52:59;;;;;;;13.20;4.90;;;6.50;99.60;;;;;;5042085;28;20029;-82
2023/04/14 06:55:28;;;;;;;16.53;5.30;;;6.50;99.60;;;;;;5041819;28;20427;-83
2023/04/14 06:57:54;;;;;;;18.17;5.03;;;6.60;99.70;;;;;;5042586;28;20559;-83
2023/04/14 07:00:20;;;;;;;13.33;4.87;;;6.70;99.70;;;;;;5058326;28;20052;-83
2023/04/14 07:02:45;;;;;;;9.93;4.33;;;6.70;99.70;;;;;;5042036;28;20037;-83
2023/04/14 07:05:11;;;;;;;10.53;4.70;;;6.80;99.70;;;;;;5025567;28;20463;-83
2023/04/14 07:07:39;;;;;;;11.80;4.50;;;6.80;99.80;;;;;;5024982;28;20472;-83
2023/04/14 07:10:05;;;;;;;15.17;4.77;;;6.80;99.70;;;;;;5025184;28;20076;-83
2023/04/14 07:12:32;;;;;;;12.37;4.77;;;6.90;99.60;;;;;;5025386;28;20029;-83
2023/04/14 07:14:57;;;;;;;16.40;5.90;;;6.90;99.50;;;;;;5058072;28;20028;-78
2023/04/14 07:17:23;;;;;;;11.83;4.27;;;7.00;99.50;;;;;;5024848;28;20040;-78
2023/04/14 07:19:49;;;;;;;11.47;4.13;;;7.00;99.40;;;;;;5024477;28;20376;-77
2023/04/14 07:22:15;;;;;;;11.47;3.70;;;7.10;99.40;;;;;;5041076;28;20064;-78
2023/04/14 07:24:40;;;;;;;11.70;4.20;;;7.20;99.30;;;;;;5041184;28;20111;-77
2023/04/14 07:27:08;;;;;;;10.60;3.60;;;7.20;99.20;;;;;;5024417;28;20085;-78
2023/04/14 07:29:33;;;;;;;13.10;4.63;;;7.30;99.30;;;;;;5057598;28;20017;-78
2023/04/14 07:31:59;;;;;;;9.03;3.67;;;7.40;99.30;;;;;;5041055;28;20039;-78
2023/04/14 07:34:25;;;;;;;15.30;4.63;;;7.40;99.20;;;;;;5040596;28;20028;-78
2023/04/14 07:36:51;;;;;;;12.00;3.43;;;7.50;99.20;;;;;;5040925;28;20139;-78
2023/04/14 07:39:17;;;;;;;10.37;2.87;;;7.60;99.10;;;;;;5040562;28;20520;-78
2023/04/14 07:41:42;;;;;;;9.90;2.70;;;7.60;99.10;;;;;;5024372;28;20059;-78
2023/04/14 07:44:08;;;;;;;8.97;3.17;;;7.60;99.10;;;;;;5041224;28;20035;-78
2023/04/14 07:46:34;;;;;;;12.83;3.70;;;7.70;99.10;;;;;;5057337;28;20457;-78
2023/04/14 07:48:59;;;;;;;8.47;2.97;;;7.80;99.00;;;;;;5024419;28;20033;-77
2023/04/14 07:51:26;;;;;;;8.30;3.23;;;7.90;98.90;;;;;;5040897;28;20028;-77
2023/04/14 07:53:51;;;;;;;12.07;3.40;;;8.00;98.90;;;;;;5041240;28;20028;-78
2023/04/14 07:56:18;;;;;;;14.63;3.93;;;8.00;98.70;;;;;;5024843;28;20036;-78
2023/04/14 07:58:43;;;;;;;9.40;2.70;;;8.10;98.60;;;;;;5040537;28;20487;-77
2023/04/14 08:01:09;;;;;;;12.00;2.97;;;8.20;98.60;;;;;;5057364;28;20116;-77
2023/04/14 08:03:36;;;;;;;10.27;2.63;;;8.30;98.50;;;;;;5057044;28;20031;-78
2023/04/14 08:06:06;;;;;;;14.33;3.83;;;8.30;98.40;;;;;;5040436;28;20119;-77
2023/04/14 08:08:32;;;;;;;13.80;4.40;;;8.40;98.40;;;;;;5056757;28;20046;-77
2023/04/14 08:10:58;;;;;;;10.07;2.83;;;8.50;98.30;;;;;;5056907;28;20385;-78
2023/04/14 08:13:24;;;;;;;12.90;4.07;;;8.60;98.20;;;;;;5056738;28;20047;-78
2023/04/14 08:15:49;;;;;;;7.97;2.77;;;8.70;98.10;;;;;;5040178;28;20055;-78
2023/04/14 08:18:15;;;;;;;7.07;2.67;;;8.80;98.10;;;;;;5040424;28;20029;-78
2023/04/14 08:20:41;;;;;;;12.40;2.90;;;8.90;98.00;;;;;;5023632;28;20025;-78
2023/04/14 08:23:07;;;;;;;10.97;2.77;;;8.90;97.90;;;;;;5056827;28;20028;-78
2023/04/14 08:25:32;;;;;;;9.53;2.57;;;9.00;97.80;;;;;;5039912;28;20040;-78
2023/04/14 08:27:58;;;;;;;8.60;2.10;;;9.10;97.70;;;;;;5056565;28;20099;-77
2023/04/14 08:30:23;;;;;;;9.97;2.10;;;9.20;97.20;;;;;;5056209;28;20429;-78
2023/04/14 08:32:49;;;;;;;6.83;2.23;;;9.30;96.90;;;;;;5056117;28;20040;-77
2023/04/14 08:35:15;;;;;;;15.77;2.03;;;9.40;96.70;;;;;;5040085;28;20055;-77
2023/04/14 08:37:41;;;;;;;6.63;1.77;;;9.50;95.50;;;;;;5074544;28;20029;-77
2023/04/14 08:40:09;;;;;;;6.77;1.70;;;9.60;94.80;;;;;;5023788;28;20040;-78
2023/04/14 08:42:34;;;;;;;8.13;2.33;;;9.70;94.50;;;;;;5056071;28;20112;-78
2023/04/14 08:45:00;;;;;;;11.57;2.50;;;9.70;94.20;;;;;;5056407;28;20144;-78
2023/04/14 08:47:30;;;;;;;9.93;2.00;;;9.80;94.00;;;;;;5039671;28;20078;-78
2023/04/14 08:50:03;;;;;;;7.17;1.50;;;9.90;93.70;;;;;;5056115;28;20487;-77
2023/04/14 08:52:31;;;;;;;7.17;1.50;;;9.90;92.90;;;;;;5056294;28;20135;-76
2023/04/14 08:54:59;;;;;;;10.73;1.70;;;10.00;92.10;;;;;;5055957;28;20028;-77
2023/04/14 08:57:25;;;;;;;8.83;1.93;;;10.10;91.60;;;;;;5055778;28;20115;-77
2023/04/14 08:59:53;;;;;;;8.77;1.60;;;10.20;91.10;;;;;;5023243;28;20120;-77
2023/04/14 09:02:20;;;;;;;11.17;1.80;;;10.30;91.00;;;;;;5055528;28;20409;-77
2023/04/14 09:04:46;;;;;;;9.33;1.70;;;10.40;90.80;;;;;;5022670;28;20021;-77
2023/04/14 09:07:13;;;;;;;9.33;1.53;;;10.40;90.60;;;;;;5040515;28;20025;-78
2023/04/14 09:09:39;;;;;;;7.25;1.38;;;10.60;90.60;;;;;;5055435;28;20036;-78
2023/04/14 09:12:05;;;;;;;16.23;1.27;;;10.70;90.50;;;;;;5038954;28;20025;-78
2023/04/14 09:14:32;;;;;;;10.55;1.70;;;10.80;90.30;;;;;;5039006;28;20115;-78
2023/04/14 09:16:58;;;;;;;8.97;1.83;;;10.90;90.20;;;;;;5055980;28;20052;-78
2023/04/14 09:19:24;;;;;;;11.48;1.77;;;11.00;89.80;;;;;;5039332;28;20060;-77
2023/04/14 09:21:50;;;;;;;7.93;1.23;;;11.10;88.40;;;;;;5038950;28;20032;-78
2023/04/14 09:24:22;;;;;;;6.70;1.25;;;11.10;88.20;;;;;;5022379;28;20138;-78
2023/04/14 09:26:49;;;;;;;3.63;0.90;;;11.30;87.10;;;;;;5056478;28;20021;-78
2023/04/14 09:29:15;;;;;;;5.80;1.00;;;11.40;85.90;;;;;;5039175;28;20369;-78
2023/04/14 09:31:42;;;;;;;5.97;1.00;;;11.50;84.30;;;;;;5022738;28;20025;-78
2023/04/14 09:34:16;;;;;;;7.03;1.35;;;11.50;82.50;;;;;;5039052;28;20119;-77
2023/04/14 09:36:43;;;;;;;10.65;1.15;;;11.60;81.50;;;;;;5038908;28;20039;-78
2023/04/14 09:39:17;;;;;;;5.43;0.98;;;11.70;80.90;;;;;;5055343;28;20052;-78
2023/04/14 09:41:46;;;;;;;5.90;1.00;;;11.80;80.70;;;;;;5053142;28;20493;-78
2023/04/14 09:44:12;;;;;;;7.10;0.90;;;11.80;78.10;;;;;;5052852;28;20024;-78
2023/04/14 09:46:58;;;;;;;6.75;0.90;;;11.90;78.20;;;;;;5038080;28;20021;-78
2023/04/14 09:49:24;;;;;;;7.80;0.80;;;12.00;77.20;;;;;;5055066;28;20547;-78
2023/04/14 09:51:53;;;;;;;5.93;0.80;;;12.10;76.10;;;;;;5024627;28;20021;-78
2023/04/14 09:54:26;;;;;;;7.88;0.95;;;12.20;76.30;;;;;;5052831;28;20028;-78
2023/04/14 09:56:53;;;;;;;6.70;1.00;;;12.30;76.70;;;;;;5035501;28;20024;-78
2023/04/14 09:59:32;;;;;;;3.90;0.60;;;12.40;75.20;;;;;;5052880;28;20362;-78
2023/04/14 10:02:02;;;;;;;5.65;0.60;;;12.60;75.10;;;;;;5035568;28;20478;-77
2023/04/14 10:04:27;;;;;;;4.53;0.60;;;12.70;74.80;;;;;;5034930;28;20083;-78
2023/04/14 10:07:00;;;;;;;5.47;0.70;;;12.90;73.40;;;;;;5018626;28;20025;-78
2023/04/14 10:09:28;;;;;;;6.85;0.90;;;13.10;71.40;;;;;;5031736;28;20037;-79
2023/04/14 10:12:10;;;;;;;4.05;0.45;;;13.30;70.00;;;;;;5031491;28;20104;-78
2023/04/14 10:14:38;;;;;;;4.63;0.80;;;13.50;69.00;;;;;;5033242;28;20028;-78
2023/04/14 10:17:05;;;;;;;3.78;0.98;;;13.50;68.40;;;;;;5033019;28;20021;-78
2023/04/14 10:19:32;;;;;;;7.45;0.82;;;13.70;67.80;;;;;;5015237;28;20025;-78
2023/04/14 10:21:58;;;;;;;4.28;0.88;;;13.90;67.40;;;;;;5015174;28;20468;-78
2023/04/14 10:24:24;;;;;;;4.78;0.75;;;14.30;67.40;;;;;;5031861;28;20421;-78
2023/04/14 10:26:52;;;;;;;5.38;0.70;;;14.90;66.60;;;;;;5031714;28;20017;-77
2023/04/14 10:29:17;;;;;;;5.30;0.80;;;15.40;66.30;;;;;;5033093;28;20026;-81
2023/04/14 10:32:08;;;;;;;6.22;0.90;;;16.00;64.70;;;;;;5031655;28;20532;-79
2023/04/14 10:34:36;;;;;;;4.68;0.80;;;16.70;63.50;;;;;;5022301;28;20037;-78
2023/04/14 10:37:15;;;;;;;3.35;0.80;;;17.40;63.50;;;;;;5015611;28;20029;-79
2023/04/14 10:39:41;;;;;;;7.10;0.93;;;17.80;61.70;;;;;;4998913;28;20136;-80
2023/04/14 10:42:07;;;;;;;4.97;0.90;;;18.30;62.90;;;;;;5014925;28;20473;-77
2023/04/14 10:44:34;;;;;;;4.70;0.90;;;19.00;62.90;;;;;;5031708;28;20025;-76
2023/04/14 10:47:06;;;;;;;4.13;0.63;;;19.90;60.60;;;;;;5033225;28;20025;-77
2023/04/14 10:49:39;;;;;;;3.40;0.70;;;20.50;58.00;;;;;;5032255;28;20026;-77
2023/04/14 10:52:11;;;;;;;6.65;0.80;;;21.20;55.80;;;;;;5015176;28;20017;-76
2023/04/14 10:55:00;;;;;;;4.72;0.70;;;21.90;55.20;;;;;;5033531;28;20021;-80
2023/04/14 10:57:29;;;;;;;3.03;0.60;;;22.40;50.80;;;;;;5035007;28;20029;-78
2023/04/14 10:59:59;;;;;;;7.07;0.90;;;22.00;48.90;;;;;;5018753;28;20438;-78
2023/04/14 11:02:30;;;;;;;2.22;0.50;;;21.80;49.30;;;;;;5034806;28;20389;-77
2023/04/14 11:05:07;;;;;;;4.80;0.90;;;21.70;48.80;;;;;;5034944;28;20474;-80
2023/04/14 11:07:57;;;;;;;4.00;0.50;;;22.00;47.20;;;;;;5036061;28;20038;-78
2023/04/14 11:10:23;;;;;;;3.03;0.50;;;22.40;46.30;;;;;;5028303;28;20041;-79
2023/04/14 11:13:00;;;;;;;4.53;0.60;;;22.90;45.40;;;;;;5035072;28;20441;-79
2023/04/14 11:15:45;;;;;;;3.83;0.55;;;23.40;44.70;;;;;;5037347;28;20029;-78
2023/04/14 11:18:27;;;;;;;3.33;0.60;;;23.80;44.10;;;;;;5038750;28;20389;-79
2023/04/14 11:20:53;;;;;;;3.35;0.70;;;24.20;43.80;;;;;;5040144;28;20037;-77
2023/04/14 11:23:26;;;;;;;9.45;3.70;;;24.60;43.10;;;;;;5054670;28;20079;-78
2023/04/14 11:25:52;;;;;;;13.45;6.75;;;24.90;42.40;;;;;;5038449;28;20473;-79
2023/04/14 11:28:47;;;;;;;7.63;3.25;;;24.70;40.70;;;;;;5055008;28;20025;-78
2023/04/14 11:31:14;;;;;;;4.05;1.25;;;24.60;41.00;;;;;;5025180;28;20409;-79
2023/04/14 11:33:40;;;;;;;3.08;0.90;;;24.80;41.20;;;;;;5055758;28;20029;-78
2023/04/14 11:36:09;;;;;;;2.05;0.60;;;25.30;41.30;;;;;;5037988;28;20025;-79
2023/04/14 11:38:39;;;;;;;3.33;0.73;;;25.70;40.70;;;;;;5054745;28;20029;-78
2023/04/14 11:41:05;;;;;;;3.20;0.60;;;26.10;39.70;;;;;;5054212;28;20049;-78
2023/04/14 11:43:31;;;;;;;1.10;0.40;;;26.50;39.20;;;;;;5054451;28;20087;-78
2023/04/14 11:46:03;;;;;;;2.33;0.60;;;26.70;38.50;;;;;;5037445;28;20029;-79
2023/04/14 11:48:29;;;;;;;3.22;0.50;;;26.70;38.50;;;;;;5037831;28;20029;-80
2023/04/14 11:51:01;;;;;;;6.00;0.85;;;27.20;38.30;;;;;;5054199;28;20116;-78
2023/04/14 11:53:26;;;;;;;6.50;0.88;;;27.50;37.60;;;;;;5055489;28;20023;-79
2023/04/14 11:55:53;;;;;;;3.10;0.70;;;27.70;36.70;;;;;;5020832;28;20400;-80
2023/04/14 11:58:23;;;;;;;5.38;0.80;;;27.80;36.30;;;;;;5020911;28;20024;-79
2023/04/14 12:00:49;;;;;;;3.38;0.68;;;27.60;36.40;;;;;;5053926;28;20424;-79
2023/04/14 12:03:15;;;;;;;3.78;0.60;;;27.60;35.40;;;;;;5055144;28;20025;-78
2023/04/14 12:05:41;;;;;;;5.78;0.98;;;27.60;35.00;;;;;;5053938;28;20021;-79
2023/04/14 12:08:08;;;;;;;3.72;0.90;;;27.10;34.40;;;;;;5055203;28;20021;-79
2023/04/14 12:10:41;;;;;;;3.75;0.80;;;26.70;35.20;;;;;;5040957;28;20533;-78
2023/04/14 12:13:10;;;;;;;3.75;0.73;;;26.70;35.50;;;;;;5040746;28;20055;-78
2023/04/14 12:15:38;;;;;;;3.38;0.73;;;26.50;35.10;;;;;;5074807;28;20415;-78
2023/04/14 12:18:12;;;;;;;6.13;1.00;;;26.20;34.80;;;;;;5040477;28;20025;-78
2023/04/14 12:20:51;;;;;;;2.53;0.60;;;26.10;35.70;;;;;;5040690;28;20032;-78
2023/04/14 12:23:17;;;;;;;6.25;0.80;;;26.00;35.40;;;;;;5075223;28;20039;-77
2023/04/14 12:25:43;;;;;;;5.78;0.77;;;25.50;35.60;;;;;;5040152;28;20017;-79
2023/04/14 12:28:08;;;;;;;5.70;0.60;;;24.90;36.00;;;;;;5039921;28;20039;-79
2023/04/14 12:30:36;;;;;;;3.65;0.70;;;24.60;36.50;;;;;;5056451;28;20167;-78
2023/04/14 12:33:12;;;;;;;5.90;0.85;;;24.50;37.30;;;;;;5040010;28;20017;-78
2023/04/14 12:35:39;;;;;;;4.78;0.82;;;24.80;37.30;;;;;;5074465;28;20383;-78
2023/04/14 12:38:13;;;;;;;4.85;0.90;;;24.40;36.70;;;;;;5056646;28;20031;-78
2023/04/14 12:40:44;;;;;;;3.70;0.80;;;24.00;37.10;;;;;;5056373;28;20028;-78
2023/04/14 12:43:11;;;;;;;4.75;0.73;;;23.60;37.50;;;;;;5074010;28;20027;-78
2023/04/14 12:45:44;;;;;;;3.60;0.70;;;23.40;37.10;;;;;;5056059;28;20442;-79
2023/04/14 12:48:16;;;;;;;;;;;23.10;37.20;;;;;;5056809;28;20021;-80
2023/04/14 12:50:42;;;;;;;5.72;1.00;;;22.80;37.80;;;;;;5056875;28;20372;-80
2023/04/14 12:53:25;;;;;;;5.13;0.90;;;22.50;38.40;;;;;;5041376;28;20021;-78
2023/04/14 12:56:08;;;;;;;2.53;0.85;;;22.30;38.80;;;;;;5056173;28;20417;-78
2023/04/14 12:58:36;;;;;;;4.55;0.63;;;22.00;39.20;;;;;;5039275;28;20381;-78